Time;durP1;ratioP1;P1;durP2;ratioP2;P2;SDS_P1;SDS_P2;PMS_P1;PMS_P2;Temp;Humidity;BMP_temperature;BMP_pressure;BME280_temperature;BME280_humidity;BME280_pressure;Samples;Min_cycle;Max_cycle;Signal;HPM_P1;HPM_P2
2021/08/17 00:00:00;;;;;;;0.50;0.50;;;13.30;99.90;;;;;;5030611;28;20296;-80
2021/08/17 00:02:27;;;;;;;0.40;0.40;;;13.30;99.90;;;;;;5037216;28;20212;-80
2021/08/17 00:04:52;;;;;;;0.40;0.40;;;13.40;99.90;;;;;;5028831;28;20209;-80
2021/08/17 00:07:19;;;;;;;0.20;0.20;;;13.30;99.90;;;;;;5037058;28;20205;-81
2021/08/17 00:09:45;;;;;;;0.40;0.40;;;13.30;99.90;;;;;;5036822;28;20204;-80
2021/08/17 00:12:11;;;;;;;0.20;0.20;;;13.30;99.90;;;;;;5035264;28;20209;-81
2021/08/17 00:14:36;;;;;;;0.30;0.30;;;13.30;99.90;;;;;;5031285;28;20695;-80
2021/08/17 00:17:03;;;;;;;0.50;0.50;;;13.30;99.90;;;;;;5036816;28;20201;-80
2021/08/17 00:19:29;;;;;;;0.20;0.20;;;13.30;99.90;;;;;;5033484;28;20292;-80
2021/08/17 00:21:54;;;;;;;0.28;0.28;;;13.30;99.90;;;;;;5034610;28;20352;-81
2021/08/17 00:24:20;;;;;;;1.42;1.10;;;13.30;99.90;;;;;;5036584;28;20205;-81
2021/08/17 00:26:46;;;;;;;0.20;0.20;;;13.40;99.90;;;;;;5035463;28;20233;-80
2021/08/17 00:29:11;;;;;;;0.20;0.20;;;13.40;99.90;;;;;;5053557;28;20193;-80
2021/08/17 00:31:37;;;;;;;5.18;1.15;;;13.40;99.90;;;;;;5036332;28;20225;-80
2021/08/17 00:34:03;;;;;;;0.20;0.20;;;13.40;99.90;;;;;;5056465;28;20262;-81
2021/08/17 00:36:30;;;;;;;0.20;0.20;;;13.40;99.90;;;;;;5049461;28;20227;-80
2021/08/17 00:38:56;;;;;;;0.20;0.20;;;13.40;99.90;;;;;;5035557;28;20237;-80
2021/08/17 00:41:21;;;;;;;1.13;0.60;;;13.40;99.90;;;;;;5007684;28;20223;-81
2021/08/17 00:43:47;;;;;;;0.68;0.50;;;13.40;99.90;;;;;;5028847;28;20296;-81
2021/08/17 00:46:13;;;;;;;0.20;0.20;;;13.40;99.90;;;;;;5027271;28;20732;-80
2021/08/17 00:48:40;;;;;;;0.40;0.40;;;13.30;99.90;;;;;;5064153;28;20208;-80
2021/08/17 00:51:09;;;;;;;0.20;0.20;;;13.30;99.90;;;;;;5041328;28;20589;-80
2021/08/17 00:53:39;;;;;;;0.30;0.30;;;13.30;99.90;;;;;;5036159;28;20209;-80
2021/08/17 00:56:05;;;;;;;0.60;0.60;;;13.30;99.90;;;;;;5036211;28;20232;-80
2021/08/17 00:58:31;;;;;;;0.30;0.30;;;13.20;99.90;;;;;;5035953;28;20259;-80
2021/08/17 01:00:57;;;;;;;0.20;0.20;;;13.20;99.90;;;;;;5035853;28;20190;-80
2021/08/17 01:03:24;;;;;;;0.13;0.13;;;13.20;99.90;;;;;;5034584;28;20284;-81
2021/08/17 01:05:50;;;;;;;0.38;0.38;;;13.20;99.90;;;;;;5035875;28;20211;-81
2021/08/17 01:08:16;;;;;;;0.38;0.38;;;13.20;99.90;;;;;;5036052;28;20210;-81
2021/08/17 01:10:44;;;;;;;0.17;0.17;;;13.20;99.90;;;;;;5051662;28;20209;-80
2021/08/17 01:13:09;;;;;;;0.20;0.20;;;13.20;99.90;;;;;;5037136;28;20274;-80
2021/08/17 01:15:35;;;;;;;0.30;0.30;;;13.20;99.90;;;;;;5052201;28;20217;-80
2021/08/17 01:18:02;;;;;;;0.30;0.30;;;13.20;99.90;;;;;;5035608;28;20237;-80
2021/08/17 01:20:31;;;;;;;0.20;0.20;;;13.20;99.90;;;;;;5042811;28;20207;-80
2021/08/17 01:22:57;;;;;;;0.32;0.32;;;13.20;99.90;;;;;;5045362;28;20204;-80
2021/08/17 01:25:24;;;;;;;0.28;0.28;;;13.20;99.90;;;;;;5034083;28;20206;-80
2021/08/17 01:27:50;;;;;;;0.82;0.57;;;13.20;99.90;;;;;;5035756;28;20559;-80
2021/08/17 01:30:16;;;;;;;0.20;0.20;;;13.20;99.90;;;;;;5032261;28;20201;-81
2021/08/17 01:32:46;;;;;;;0.20;0.20;;;13.20;99.90;;;;;;5026914;28;20293;-81
2021/08/17 01:35:13;;;;;;;0.25;0.25;;;13.20;99.90;;;;;;5069769;28;20205;-80
2021/08/17 01:37:39;;;;;;;0.28;0.28;;;13.20;99.90;;;;;;5034897;28;20241;-80
2021/08/17 01:40:10;;;;;;;0.30;0.30;;;13.10;99.90;;;;;;5035119;28;20205;-80
2021/08/17 01:42:37;;;;;;;0.40;0.40;;;13.10;99.90;;;;;;5034941;28;20229;-79
2021/08/17 01:45:03;;;;;;;0.20;0.20;;;13.10;99.90;;;;;;5035065;28;20209;-80
2021/08/17 01:47:30;;;;;;;0.57;0.57;;;13.10;99.90;;;;;;5034900;28;20300;-80
2021/08/17 01:49:58;;;;;;;0.20;0.20;;;13.10;99.90;;;;;;5031692;28;20221;-80
2021/08/17 01:52:23;;;;;;;0.20;0.20;;;13.00;99.90;;;;;;5034069;28;20242;-80
2021/08/17 01:54:49;;;;;;;0.30;0.30;;;13.00;99.90;;;;;;5045007;28;20213;-80
2021/08/17 01:57:15;;;;;;;4.55;0.98;;;13.00;99.90;;;;;;5031528;28;20288;-80
2021/08/17 01:59:40;;;;;;;0.20;0.20;;;13.00;99.90;;;;;;5026117;28;20202;-82
2021/08/17 02:02:08;;;;;;;0.93;0.88;;;13.00;99.90;;;;;;5029338;28;20206;-80
2021/08/17 02:04:35;;;;;;;0.30;0.30;;;12.90;99.90;;;;;;5034675;28;20240;-81
2021/08/17 02:07:01;;;;;;;0.20;0.20;;;13.00;99.90;;;;;;5044711;28;20192;-80
2021/08/17 02:09:27;;;;;;;0.20;0.20;;;12.90;99.90;;;;;;5034802;28;20661;-80
2021/08/17 02:11:52;;;;;;;0.22;0.22;;;12.90;99.90;;;;;;5034713;28;20201;-80
2021/08/17 02:14:18;;;;;;;0.40;0.40;;;13.00;99.90;;;;;;5034776;28;20212;-81
2021/08/17 02:16:44;;;;;;;0.30;0.30;;;12.90;99.90;;;;;;5034289;28;20292;-80
2021/08/17 02:19:09;;;;;;;0.30;0.30;;;13.00;99.90;;;;;;5051340;28;20688;-80
2021/08/17 02:21:35;;;;;;;0.30;0.30;;;12.90;99.90;;;;;;5032216;28;20332;-80
2021/08/17 02:24:01;;;;;;;0.20;0.20;;;13.00;99.90;;;;;;5034304;28;20194;-80
2021/08/17 02:26:26;;;;;;;0.22;0.22;;;13.00;99.90;;;;;;5022156;28;20195;-81
2021/08/17 02:28:52;;;;;;;0.40;0.40;;;12.90;99.90;;;;;;5031620;28;20288;-80
2021/08/17 02:31:18;;;;;;;0.20;0.20;;;13.00;99.90;;;;;;5034313;28;20553;-81
2021/08/17 02:33:43;;;;;;;0.38;0.38;;;13.00;99.90;;;;;;5029951;28;20216;-80
2021/08/17 02:36:09;;;;;;;0.30;0.30;;;13.00;99.90;;;;;;5034235;28;20229;-81
2021/08/17 02:38:35;;;;;;;0.20;0.20;;;13.00;99.90;;;;;;5033001;28;20213;-80
2021/08/17 02:41:00;;;;;;;0.40;0.40;;;13.00;99.90;;;;;;5034239;28;20194;-80
2021/08/17 02:43:26;;;;;;;0.52;0.50;;;13.00;99.90;;;;;;5033141;28;20201;-79
2021/08/17 02:45:55;;;;;;;0.82;0.75;;;13.00;99.90;;;;;;5034352;28;20201;-80
2021/08/17 02:48:21;;;;;;;0.20;0.20;;;13.00;99.90;;;;;;5033066;28;20256;-80
2021/08/17 02:50:46;;;;;;;0.20;0.20;;;13.00;99.90;;;;;;5034446;28;20695;-80
2021/08/17 02:53:13;;;;;;;0.20;0.20;;;13.00;99.90;;;;;;5032098;28;20653;-80
2021/08/17 02:55:39;;;;;;;0.20;0.20;;;13.00;99.90;;;;;;5052090;28;20273;-80
2021/08/17 02:58:09;;;;;;;0.20;0.20;;;13.00;99.90;;;;;;5034316;28;20205;-80
2021/08/17 03:00:36;;;;;;;0.20;0.20;;;13.00;99.90;;;;;;5032833;28;20240;-80
2021/08/17 03:03:02;;;;;;;0.32;0.32;;;12.90;99.90;;;;;;5049242;28;20194;-80
2021/08/17 03:05:28;;;;;;;0.20;0.20;;;13.00;99.90;;;;;;5030857;28;20693;-80
2021/08/17 03:08:00;;;;;;;0.20;0.20;;;13.00;99.90;;;;;;5033062;28;20198;-80
2021/08/17 03:10:27;;;;;;;0.20;0.20;;;13.00;99.90;;;;;;5034157;28;20575;-81
2021/08/17 03:12:53;;;;;;;0.30;0.30;;;12.90;99.90;;;;;;5034166;28;20667;-80
2021/08/17 03:15:19;;;;;;;0.20;0.20;;;12.90;99.90;;;;;;5033060;28;20262;-81
2021/08/17 03:17:45;;;;;;;0.20;0.20;;;13.00;99.90;;;;;;5033240;28;20204;-80
2021/08/17 03:20:13;;;;;;;0.20;0.20;;;13.00;99.90;;;;;;5034320;28;20197;-81
2021/08/17 03:22:39;;;;;;;0.30;0.30;;;13.00;99.90;;;;;;5034120;28;20201;-80
2021/08/17 03:25:07;;;;;;;0.43;0.43;;;13.00;99.90;;;;;;5034144;28;20260;-81
2021/08/17 03:27:33;;;;;;;0.20;0.20;;;13.00;99.90;;;;;;5033941;28;20255;-80
2021/08/17 03:29:59;;;;;;;0.20;0.20;;;13.00;99.90;;;;;;5037279;28;20201;-80
2021/08/17 03:32:24;;;;;;;0.30;0.30;;;13.00;99.90;;;;;;5037532;28;20220;-80
2021/08/17 03:34:51;;;;;;;0.28;0.28;;;13.00;99.90;;;;;;5037645;28;20687;-80
2021/08/17 03:37:17;;;;;;;0.25;0.25;;;13.00;99.90;;;;;;5034015;28;20221;-81
2021/08/17 03:39:43;;;;;;;0.22;0.22;;;13.10;99.90;;;;;;5016166;28;20749;-80
2021/08/17 03:42:09;;;;;;;0.20;0.20;;;13.10;99.90;;;;;;5035590;28;20197;-81
2021/08/17 03:44:35;;;;;;;0.20;0.20;;;13.10;99.90;;;;;;5016377;28;20202;-81
2021/08/17 03:47:01;;;;;;;0.20;0.20;;;13.10;99.90;;;;;;5017674;28;20529;-81
2021/08/17 03:49:27;;;;;;;0.20;0.20;;;13.10;99.90;;;;;;5017687;28;20297;-80
2021/08/17 03:51:52;;;;;;;0.20;0.20;;;13.10;99.90;;;;;;5017462;28;20212;-80
2021/08/17 03:54:18;;;;;;;0.20;0.20;;;13.10;99.90;;;;;;5016440;28;20202;-81
2021/08/17 03:56:44;;;;;;;0.20;0.20;;;13.10;99.90;;;;;;5016288;28;20285;-80
2021/08/17 03:59:09;;;;;;;0.20;0.20;;;13.10;99.90;;;;;;5017681;28;20683;-80
2021/08/17 04:01:35;;;;;;;0.32;0.32;;;13.10;99.90;;;;;;5016846;28;20715;-80
2021/08/17 04:04:00;;;;;;;0.20;0.20;;;13.10;99.90;;;;;;5017331;28;20194;-80
2021/08/17 04:06:26;;;;;;;0.20;0.20;;;13.10;99.90;;;;;;5015966;28;20198;-80
2021/08/17 04:08:53;;;;;;;0.52;0.30;;;13.10;99.90;;;;;;5017263;28;20293;-80
2021/08/17 04:11:19;;;;;;;0.55;0.50;;;13.10;99.90;;;;;;5016337;28;20685;-81
2021/08/17 04:13:44;;;;;;;0.80;0.80;;;13.10;99.90;;;;;;5017350;28;20225;-81
2021/08/17 04:16:10;;;;;;;0.20;0.20;;;13.10;99.90;;;;;;5017220;28;20218;-81
2021/08/17 04:18:36;;;;;;;0.50;0.50;;;13.10;99.90;;;;;;5015852;28;20206;-80
2021/08/17 04:21:02;;;;;;;0.40;0.40;;;13.10;99.90;;;;;;5033693;28;20274;-82
2021/08/17 04:23:27;;;;;;;0.63;0.63;;;13.20;99.90;;;;;;5024472;28;20244;-80
2021/08/17 04:25:53;;;;;;;0.30;0.30;;;13.20;99.90;;;;;;5025530;28;20252;-80
2021/08/17 04:28:19;;;;;;;0.40;0.40;;;13.20;99.90;;;;;;5015832;28;20701;-81
2021/08/17 04:30:45;;;;;;;0.20;0.20;;;13.20;99.90;;;;;;5015222;28;20206;-80
2021/08/17 04:33:10;;;;;;;0.28;0.28;;;13.20;99.90;;;;;;5001884;28;20237;-82
2021/08/17 04:35:36;;;;;;;0.20;0.20;;;13.20;99.90;;;;;;5016994;28;20221;-80
2021/08/17 04:38:02;;;;;;;0.20;0.20;;;13.20;99.90;;;;;;5036825;28;20743;-81
2021/08/17 04:40:27;;;;;;;0.20;0.20;;;13.20;99.90;;;;;;5036138;28;20660;-81
2021/08/17 04:42:53;;;;;;;0.63;0.32;;;13.30;99.90;;;;;;5033323;28;20199;-80
2021/08/17 04:45:19;;;;;;;0.20;0.20;;;13.20;99.90;;;;;;5044526;28;20205;-82
2021/08/17 04:47:50;;;;;;;1.15;0.75;;;13.20;99.90;;;;;;5027743;28;20695;-80
2021/08/17 04:50:16;;;;;;;0.20;0.20;;;13.30;99.90;;;;;;5035996;28;20672;-80
2021/08/17 04:52:42;;;;;;;0.20;0.20;;;13.30;99.90;;;;;;5036230;28;20615;-80
2021/08/17 04:55:08;;;;;;;0.20;0.20;;;13.30;99.90;;;;;;5036354;28;20213;-80
2021/08/17 04:58:06;;;;;;;0.20;0.20;;;13.30;99.90;;;;;;5027865;28;20341;-80
2021/08/17 05:00:33;;;;;;;0.40;0.40;;;13.30;99.90;;;;;;4979340;28;20684;-81
2021/08/17 05:02:58;;;;;;;0.20;0.20;;;13.30;99.90;;;;;;5036201;28;20331;-80
2021/08/17 05:05:24;;;;;;;0.20;0.20;;;13.30;99.90;;;;;;5034007;28;20284;-80
2021/08/17 05:07:51;;;;;;;0.20;0.20;;;13.30;99.90;;;;;;5039006;28;20693;-80
2021/08/17 05:10:19;;;;;;;0.20;0.20;;;13.30;99.90;;;;;;5036329;28;20205;-81
2021/08/17 05:12:45;;;;;;;1.17;1.02;;;13.30;99.90;;;;;;5052489;28;20700;-81
2021/08/17 05:15:13;;;;;;;0.20;0.20;;;13.30;99.90;;;;;;5035826;28;20251;-80
2021/08/17 05:17:39;;;;;;;0.22;0.22;;;13.30;99.90;;;;;;5032431;28;20213;-80
2021/08/17 05:20:07;;;;;;;0.30;0.30;;;13.30;99.90;;;;;;5048024;28;20201;-80
2021/08/17 05:22:33;;;;;;;0.20;0.20;;;13.40;99.90;;;;;;5035849;28;20201;-79
2021/08/17 05:24:59;;;;;;;0.28;0.28;;;13.40;99.90;;;;;;5044500;28;20206;-80
2021/08/17 05:27:25;;;;;;;0.60;0.50;;;13.40;99.90;;;;;;5034520;28;20201;-80
2021/08/17 05:29:52;;;;;;;0.35;0.35;;;13.50;99.90;;;;;;5046062;28;20202;-80
2021/08/17 05:32:19;;;;;;;1.27;1.13;;;13.50;99.90;;;;;;5033982;28;20235;-81
2021/08/17 05:34:45;;;;;;;0.20;0.20;;;13.40;99.90;;;;;;5035869;28;20205;-81
2021/08/17 05:37:11;;;;;;;0.47;0.47;;;13.50;99.90;;;;;;5034517;28;20222;-81
2021/08/17 05:39:37;;;;;;;0.28;0.28;;;13.50;99.90;;;;;;5052708;28;20228;-80
2021/08/17 05:42:03;;;;;;;0.85;0.38;;;13.50;99.90;;;;;;5036018;28;20202;-80
2021/08/17 05:44:28;;;;;;;0.22;0.22;;;13.40;99.90;;;;;;5046432;28;20656;-81
2021/08/17 05:46:54;;;;;;;0.40;0.40;;;13.50;99.90;;;;;;5040428;28;20198;-80
2021/08/17 05:49:20;;;;;;;0.20;0.20;;;13.50;99.90;;;;;;5035070;28;20209;-82
2021/08/17 05:51:45;;;;;;;0.20;0.20;;;13.50;99.90;;;;;;5033877;28;20193;-80
2021/08/17 05:54:11;;;;;;;0.40;0.40;;;13.50;99.90;;;;;;5038744;28;20200;-80
2021/08/17 05:56:37;;;;;;;0.20;0.20;;;13.50;99.90;;;;;;5048486;28;20202;-80
2021/08/17 05:59:03;;;;;;;0.32;0.32;;;13.40;99.90;;;;;;5051819;28;20331;-82
2021/08/17 06:01:28;;;;;;;0.88;0.60;;;13.40;99.90;;;;;;5044755;28;20281;-81
2021/08/17 06:03:54;;;;;;;0.52;0.52;;;13.40;99.90;;;;;;5019614;28;20684;-80
2021/08/17 06:06:20;;;;;;;0.20;0.20;;;13.40;99.90;;;;;;5048373;28;20211;-82
2021/08/17 06:08:46;;;;;;;0.20;0.20;;;13.40;99.90;;;;;;5038039;28;20206;-80
2021/08/17 06:11:11;;;;;;;0.20;0.20;;;13.40;99.90;;;;;;5061526;28;20193;-80
2021/08/17 06:13:37;;;;;;;0.40;0.40;;;13.40;99.90;;;;;;5050451;28;20235;-80
2021/08/17 06:16:03;;;;;;;0.10;0.10;;;13.40;99.90;;;;;;5041168;28;20201;-80
2021/08/17 06:18:29;;;;;;;0.47;0.47;;;13.40;99.90;;;;;;5034545;28;20288;-79
2021/08/17 06:20:54;;;;;;;0.10;0.10;;;13.40;99.90;;;;;;5033312;28;20226;-80
2021/08/17 06:23:20;;;;;;;0.20;0.20;;;13.40;99.90;;;;;;5032309;28;20213;-80
2021/08/17 06:25:46;;;;;;;0.20;0.20;;;13.40;99.90;;;;;;5050632;28;20224;-80
2021/08/17 06:28:12;;;;;;;0.20;0.20;;;13.40;99.90;;;;;;5032987;28;20210;-80
2021/08/17 06:30:40;;;;;;;0.20;0.20;;;13.40;99.90;;;;;;5034446;28;20205;-80
2021/08/17 06:33:06;;;;;;;0.20;0.20;;;13.40;99.90;;;;;;5063982;28;20572;-80
2021/08/17 06:35:32;;;;;;;0.20;0.20;;;13.30;99.90;;;;;;5066290;28;20216;-80
2021/08/17 06:37:59;;;;;;;0.20;0.20;;;13.30;99.90;;;;;;5041530;28;20680;-80
2021/08/17 06:40:25;;;;;;;0.25;0.25;;;13.30;99.90;;;;;;5034640;28;20295;-79
2021/08/17 06:42:52;;;;;;;0.13;0.13;;;13.40;99.90;;;;;;5039373;28;20277;-80
2021/08/17 06:45:17;;;;;;;0.10;0.10;;;13.40;99.90;;;;;;5049350;28;20208;-80
2021/08/17 06:47:51;;;;;;;0.20;0.20;;;13.50;99.90;;;;;;5049320;28;20197;-80
2021/08/17 06:50:18;;;;;;;0.30;0.30;;;13.50;99.90;;;;;;5035158;28;20212;-80
2021/08/17 06:52:44;;;;;;;0.20;0.20;;;13.50;99.90;;;;;;5034266;28;20201;-80
2021/08/17 06:55:11;;;;;;;0.20;0.20;;;13.50;99.90;;;;;;5034599;28;20205;-80
2021/08/17 06:57:37;;;;;;;0.38;0.38;;;13.60;99.90;;;;;;5032746;28;20205;-80
2021/08/17 07:00:08;;;;;;;0.20;0.20;;;13.60;99.90;;;;;;5034400;28;20237;-80
2021/08/17 07:02:34;;;;;;;0.22;0.22;;;13.60;99.90;;;;;;5033811;28;20204;-80
2021/08/17 07:05:00;;;;;;;1.45;0.65;;;13.70;99.90;;;;;;5037980;28;20296;-80
2021/08/17 07:07:25;;;;;;;0.75;0.63;;;13.70;99.90;;;;;;5038347;28;20263;-80
2021/08/17 07:09:52;;;;;;;0.10;0.10;;;13.70;99.90;;;;;;5061226;28;20201;-80
2021/08/17 07:12:17;;;;;;;0.20;0.20;;;13.70;99.90;;;;;;5047680;28;20256;-79
2021/08/17 07:14:43;;;;;;;0.17;0.17;;;13.70;99.90;;;;;;5023428;28;20213;-80
2021/08/17 07:17:09;;;;;;;0.20;0.20;;;13.70;99.90;;;;;;5038135;28;20209;-79
2021/08/17 07:19:35;;;;;;;0.30;0.30;;;13.70;99.90;;;;;;5073579;28;20193;-80
2021/08/17 07:22:01;;;;;;;0.28;0.28;;;13.70;99.90;;;;;;5038055;28;20233;-80
2021/08/17 07:24:28;;;;;;;0.20;0.20;;;13.70;99.90;;;;;;5051777;28;20196;-79
2021/08/17 07:26:54;;;;;;;0.20;0.20;;;13.70;99.90;;;;;;5051995;28;20676;-79
2021/08/17 07:29:20;;;;;;;0.47;0.47;;;13.70;99.90;;;;;;5032129;28;20216;-79
2021/08/17 07:31:46;;;;;;;0.30;0.30;;;13.70;99.90;;;;;;5037765;28;20480;-79
2021/08/17 07:34:12;;;;;;;0.20;0.20;;;13.70;99.90;;;;;;5037768;28;20339;-80
2021/08/17 07:36:38;;;;;;;0.10;0.10;;;13.70;99.90;;;;;;5034326;28;20323;-79
2021/08/17 07:39:06;;;;;;;0.30;0.30;;;13.70;99.90;;;;;;5035599;28;20251;-80
2021/08/17 07:41:32;;;;;;;0.20;0.20;;;13.70;99.90;;;;;;5021409;28;20200;-80
2021/08/17 07:43:58;;;;;;;0.22;0.22;;;13.70;99.90;;;;;;5038142;28;20354;-80
2021/08/17 07:46:24;;;;;;;1.35;1.05;;;13.70;99.90;;;;;;5037800;28;20205;-79
2021/08/17 07:48:50;;;;;;;0.25;0.25;;;13.70;99.90;;;;;;5021189;28;20615;-79
2021/08/17 07:51:16;;;;;;;0.45;0.30;;;13.60;99.90;;;;;;5053812;28;20698;-80
2021/08/17 07:53:42;;;;;;;0.20;0.20;;;13.60;99.90;;;;;;5037133;28;20211;-79
2021/08/17 07:56:08;;;;;;;0.20;0.20;;;13.60;99.90;;;;;;5054113;28;20217;-79
2021/08/17 07:58:34;;;;;;;0.40;0.40;;;13.60;99.90;;;;;;5037742;28;20280;-79
2021/08/17 08:01:00;;;;;;;0.20;0.20;;;13.50;99.90;;;;;;5037963;28;20744;-79
2021/08/17 08:03:26;;;;;;;0.20;0.20;;;13.60;99.90;;;;;;5041891;28;20208;-79
2021/08/17 08:05:52;;;;;;;0.10;0.10;;;13.60;99.90;;;;;;5045391;28;20210;-79
2021/08/17 08:08:18;;;;;;;0.20;0.20;;;13.60;99.90;;;;;;5037448;28;20623;-80
2021/08/17 08:10:44;;;;;;;0.20;0.20;;;13.60;99.90;;;;;;5054982;28;20276;-79
2021/08/17 08:13:10;;;;;;;0.30;0.30;;;13.60;99.90;;;;;;5037016;28;20205;-80
2021/08/17 08:15:35;;;;;;;0.95;0.75;;;13.70;99.90;;;;;;5035997;28;20213;-80
2021/08/17 08:18:01;;;;;;;0.75;0.75;;;13.70;99.90;;;;;;5033676;28;20202;-80
2021/08/17 08:20:27;;;;;;;0.50;0.50;;;13.70;99.90;;;;;;5038806;28;20201;-79
2021/08/17 08:22:53;;;;;;;0.20;0.20;;;13.70;99.90;;;;;;5036832;28;20288;-80
2021/08/17 08:25:19;;;;;;;0.10;0.10;;;13.70;99.90;;;;;;5036768;28;20624;-80
2021/08/17 08:27:45;;;;;;;0.20;0.20;;;13.70;99.90;;;;;;5036667;28;20213;-79
2021/08/17 08:30:12;;;;;;;0.50;0.45;;;13.70;99.90;;;;;;5040480;28;20204;-80
2021/08/17 08:32:39;;;;;;;0.20;0.20;;;13.70;99.90;;;;;;5049905;28;20224;-80
2021/08/17 08:35:06;;;;;;;0.20;0.20;;;13.70;99.90;;;;;;5035853;28;20212;-80
2021/08/17 08:37:32;;;;;;;0.80;0.40;;;13.70;99.90;;;;;;5026344;28;20237;-80
2021/08/17 08:39:57;;;;;;;0.20;0.20;;;13.70;99.90;;;;;;5030531;28;20210;-81
2021/08/17 08:42:24;;;;;;;0.40;0.40;;;13.70;99.90;;;;;;5036327;28;20668;-81
2021/08/17 08:44:54;;;;;;;0.20;0.20;;;13.70;99.90;;;;;;5021698;28;20212;-80
2021/08/17 08:47:20;;;;;;;0.20;0.20;;;13.70;99.90;;;;;;5049698;28;20300;-81
2021/08/17 08:49:50;;;;;;;0.20;0.20;;;13.70;99.90;;;;;;5036402;28;20201;-80
2021/08/17 08:52:17;;;;;;;0.40;0.40;;;13.80;99.90;;;;;;5036218;28;20706;-80
2021/08/17 08:54:43;;;;;;;0.20;0.20;;;13.80;99.90;;;;;;5036168;28;20558;-81
2021/08/17 08:57:10;;;;;;;0.30;0.30;;;13.80;99.90;;;;;;5036113;28;20208;-81
2021/08/17 08:59:35;;;;;;;0.13;0.13;;;13.80;99.90;;;;;;5034838;28;20193;-81
2021/08/17 09:02:09;;;;;;;0.10;0.10;;;13.90;99.90;;;;;;5035421;28;20270;-82
2021/08/17 09:04:35;;;;;;;0.30;0.30;;;13.90;99.90;;;;;;5036738;28;20228;-82
2021/08/17 09:07:02;;;;;;;0.30;0.30;;;14.00;99.90;;;;;;5036306;28;20284;-81
2021/08/17 09:09:29;;;;;;;0.50;0.50;;;14.00;99.90;;;;;;5035928;28;20202;-81
2021/08/17 09:11:57;;;;;;;0.10;0.10;;;14.00;99.90;;;;;;5039745;28;20285;-81
2021/08/17 09:14:25;;;;;;;0.55;0.55;;;14.10;99.90;;;;;;5032781;28;20197;-81
2021/08/17 09:17:02;;;;;;;0.50;0.50;;;14.20;99.90;;;;;;5036101;28;20592;-80
2021/08/17 09:19:29;;;;;;;7.43;1.42;;;14.10;99.90;;;;;;5035353;28;20715;-81
2021/08/17 09:21:58;;;;;;;0.50;0.50;;;14.10;99.90;;;;;;5052130;28;20648;-81
2021/08/17 09:24:28;;;;;;;0.70;0.70;;;14.10;99.90;;;;;;5035897;28;20626;-81
2021/08/17 09:26:58;;;;;;;0.50;0.50;;;14.20;99.90;;;;;;5031508;28;20198;-80
2021/08/17 09:29:29;;;;;;;0.60;0.60;;;14.20;99.90;;;;;;5040564;28;20680;-81
2021/08/17 09:31:57;;;;;;;0.60;0.60;;;14.10;99.90;;;;;;5034264;28;20205;-81
2021/08/17 09:34:30;;;;;;;0.68;0.68;;;14.10;99.90;;;;;;5034200;28;20256;-82
2021/08/17 09:36:56;;;;;;;0.43;0.43;;;14.10;99.90;;;;;;5027622;28;20721;-80
2021/08/17 09:39:33;;;;;;;0.40;0.40;;;14.10;99.90;;;;;;5022934;28;20234;-80
2021/08/17 09:42:10;;;;;;;0.50;0.50;;;14.00;99.90;;;;;;5031074;28;20194;-81
2021/08/17 09:44:36;;;;;;;0.50;0.50;;;13.90;99.90;;;;;;5029561;28;20660;-80
2021/08/17 09:47:02;;;;;;;0.60;0.60;;;14.00;99.90;;;;;;5051063;28;20198;-80
2021/08/17 09:49:31;;;;;;;0.70;0.70;;;14.00;99.90;;;;;;5035237;28;20657;-80
2021/08/17 09:52:18;;;;;;;0.40;0.40;;;14.00;99.90;;;;;;5035217;28;20197;-81
2021/08/17 09:54:49;;;;;;;0.40;0.40;;;14.00;99.90;;;;;;5034579;28;20221;-80
2021/08/17 09:57:15;;;;;;;0.40;0.40;;;14.00;99.90;;;;;;5035010;28;20209;-81
2021/08/17 09:59:46;;;;;;;0.40;0.40;;;14.00;99.90;;;;;;5033742;28;20280;-80
2021/08/17 10:02:12;;;;;;;0.40;0.40;;;14.00;99.90;;;;;;5034860;28;20197;-80
2021/08/17 10:04:40;;;;;;;0.40;0.40;;;14.00;99.90;;;;;;5034752;28;20668;-80
2021/08/17 10:07:08;;;;;;;0.40;0.40;;;13.90;99.90;;;;;;5035010;28;20204;-80
2021/08/17 10:09:35;;;;;;;0.40;0.40;;;13.90;99.90;;;;;;5033647;28;20304;-81
2021/08/17 10:12:03;;;;;;;0.50;0.50;;;13.80;99.90;;;;;;5035058;28;20197;-82
2021/08/17 10:14:29;;;;;;;0.47;0.47;;;13.80;99.90;;;;;;5017558;28;20205;-81
2021/08/17 10:16:55;;;;;;;0.40;0.40;;;13.80;99.90;;;;;;5050687;28;20201;-80
2021/08/17 10:19:28;;;;;;;0.50;0.50;;;13.80;99.90;;;;;;5034827;28;20201;-80
2021/08/17 10:21:55;;;;;;;0.65;0.65;;;13.80;99.90;;;;;;5034703;28;20288;-80
2021/08/17 10:24:33;;;;;;;0.40;0.40;;;13.80;99.90;;;;;;5034672;28;20547;-81
2021/08/17 10:27:20;;;;;;;0.70;0.70;;;13.80;99.90;;;;;;5034888;28;20201;-80
2021/08/17 10:30:17;;;;;;;0.40;0.40;;;13.80;99.90;;;;;;5034772;28;20263;-80
2021/08/17 10:33:00;;;;;;;0.50;0.50;;;13.80;99.90;;;;;;5031197;28;20293;-81
2021/08/17 10:35:29;;;;;;;0.60;0.60;;;13.80;99.90;;;;;;5019565;28;20263;-81
2021/08/17 10:38:06;;;;;;;0.50;0.50;;;13.90;99.90;;;;;;5048560;28;20739;-81
2021/08/17 10:40:51;;;;;;;1.35;0.68;;;14.00;99.90;;;;;;5034382;28;20205;-82
2021/08/17 10:43:18;;;;;;;0.40;0.40;;;14.10;99.90;;;;;;5034517;28;20207;-82
2021/08/17 10:46:02;;;;;;;1.00;0.80;;;14.10;99.90;;;;;;5029995;28;20213;-81
2021/08/17 10:51:18;;;;;;;0.50;0.50;;;14.30;99.90;;;;;;5051381;28;20216;-82
2021/08/17 10:54:14;;;;;;;0.40;0.40;;;14.30;99.90;;;;;;5051059;28;20731;-81
2021/08/17 10:56:40;;;;;;;0.60;0.60;;;14.30;99.90;;;;;;5034071;28;20209;-82
2021/08/17 10:59:07;;;;;;;0.40;0.40;;;14.30;99.90;;;;;;5034492;28;20228;-82
2021/08/17 11:01:47;;;;;;;0.50;0.50;;;14.30;99.90;;;;;;5032138;28;20201;-81
2021/08/17 11:04:12;;;;;;;1.38;1.15;;;14.40;99.90;;;;;;5033421;28;20201;-81
2021/08/17 11:06:58;;;;;;;0.50;0.50;;;14.50;99.90;;;;;;5034190;28;20211;-81
2021/08/17 11:09:37;;;;;;;0.50;0.50;;;14.60;99.90;;;;;;5034321;28;20201;-82
2021/08/17 11:12:05;;;;;;;0.57;0.57;;;14.70;99.90;;;;;;5034119;28;20201;-81
2021/08/17 11:14:36;;;;;;;0.40;0.40;;;15.00;99.90;;;;;;5033631;28;20205;-79
2021/08/17 11:17:05;;;;;;;0.38;0.38;;;15.20;99.90;;;;;;5033551;28;20742;-81
2021/08/17 11:19:36;;;;;;;0.60;0.60;;;15.40;99.90;;;;;;5033015;28;20198;-82
2021/08/17 11:22:04;;;;;;;0.40;0.40;;;15.60;99.90;;;;;;5035141;28;20202;-82
2021/08/17 11:24:38;;;;;;;0.40;0.40;;;15.80;99.90;;;;;;5034020;28;20311;-82
2021/08/17 11:27:16;;;;;;;0.40;0.40;;;16.00;99.90;;;;;;5033111;28;20198;-82
2021/08/17 11:29:47;;;;;;;0.95;0.93;;;16.20;99.90;;;;;;5033502;28;20212;-81
2021/08/17 11:32:25;;;;;;;0.40;0.40;;;16.30;99.90;;;;;;5050095;28;20253;-81
2021/08/17 11:34:51;;;;;;;0.50;0.50;;;16.40;99.90;;;;;;5034093;28;20221;-82
2021/08/17 11:37:17;;;;;;;0.30;0.30;;;16.50;99.90;;;;;;5033816;28;20564;-81
2021/08/17 11:39:49;;;;;;;0.40;0.40;;;16.50;99.90;;;;;;5033908;28;20267;-82
2021/08/17 11:42:14;;;;;;;0.30;0.30;;;16.40;99.90;;;;;;5030650;28;20210;-82
2021/08/17 11:44:40;;;;;;;0.40;0.40;;;16.30;99.90;;;;;;5040839;28;20202;-82
2021/08/17 11:47:15;;;;;;;0.52;0.52;;;16.40;99.90;;;;;;5032617;28;20197;-81
2021/08/17 11:49:42;;;;;;;0.30;0.30;;;16.40;99.90;;;;;;5033814;28;20223;-83
2021/08/17 11:52:15;;;;;;;1.88;1.25;;;16.50;99.90;;;;;;5037122;28;20204;-81
2021/08/17 11:55:03;;;;;;;0.30;0.30;;;16.40;99.90;;;;;;5036346;28;20201;-82
2021/08/17 11:57:34;;;;;;;0.40;0.40;;;16.40;99.90;;;;;;5036007;28;20198;-82
2021/08/17 12:00:11;;;;;;;0.30;0.30;;;16.10;99.90;;;;;;5036362;28;20194;-82
2021/08/17 12:02:39;;;;;;;0.30;0.30;;;16.00;99.90;;;;;;5020754;28;20201;-84
2021/08/17 12:05:08;;;;;;;0.40;0.40;;;16.00;99.90;;;;;;5053531;28;20193;-83
2021/08/17 12:07:34;;;;;;;0.30;0.30;;;15.90;99.90;;;;;;5053761;28;20221;-82
2021/08/17 12:10:18;;;;;;;0.40;0.40;;;15.90;99.90;;;;;;5037376;28;20728;-81
2021/08/17 12:13:05;;;;;;;0.50;0.50;;;15.80;99.90;;;;;;5037095;28;20671;-81
2021/08/17 12:15:40;;;;;;;2.45;0.82;;;15.80;99.90;;;;;;5036831;28;20568;-81
2021/08/17 12:18:16;;;;;;;0.40;0.40;;;15.70;99.90;;;;;;5037633;28;20212;-81
2021/08/17 12:21:03;;;;;;;0.47;0.47;;;15.60;99.90;;;;;;5051468;28;20255;-81
2021/08/17 12:23:37;;;;;;;0.95;0.57;;;15.50;99.90;;;;;;5036929;28;20283;-82
2021/08/17 12:26:16;;;;;;;0.50;0.50;;;15.40;99.90;;;;;;5036949;28;20209;-81
2021/08/17 12:28:45;;;;;;;0.40;0.40;;;15.30;99.90;;;;;;5036745;28;20296;-81
2021/08/17 12:31:14;;;;;;;0.40;0.40;;;15.30;99.90;;;;;;5036879;28;20217;-81
2021/08/17 12:33:57;;;;;;;0.50;0.50;;;15.30;99.90;;;;;;5054443;28;20205;-81
2021/08/17 12:36:40;;;;;;;0.40;0.40;;;15.30;99.90;;;;;;5031965;28;20225;-81
2021/08/17 12:39:11;;;;;;;0.30;0.30;;;15.20;99.90;;;;;;5050484;28;20205;-81
2021/08/17 12:41:55;;;;;;;0.40;0.40;;;15.10;99.90;;;;;;5036266;28;20232;-81
2021/08/17 12:44:25;;;;;;;0.40;0.40;;;15.00;99.90;;;;;;5036254;28;20228;-81
2021/08/17 12:47:00;;;;;;;0.40;0.40;;;14.90;99.90;;;;;;5053078;28;20794;-81
2021/08/17 12:50:08;;;;;;;0.40;0.40;;;14.90;99.90;;;;;;5036151;28;20575;-81
2021/08/17 12:52:42;;;;;;;0.50;0.50;;;14.80;99.90;;;;;;5026339;28;20616;-81
2021/08/17 12:55:10;;;;;;;0.40;0.40;;;14.70;99.90;;;;;;5053891;28;20241;-80